Aviation Digital Data Service (ADDS)

Output produced by METARs form (0441 UTC 31 August 2015)
found at http://aviationweather.gov/adds/metars/
 
KAEX 302320Z 3100/3124 18004KT P6SM SCT250